Meteo Giornale » Osservazioni meteo Turchia » Konya
ore: 15:50 - Osservazioni Meteo Konya
Lat. 37° 58' N Lon. 32° 33' E Alt. 1032 metri s.l.m.
29 °C
Poco Nuvoloso
Temp. 24 Ore
17 °C
29 °C
Nord
13 Km/h
Dew point 7 °C
Umidità 25 %
Visibilità 10 Km
Il sole sorge alle ore 06:19
Il sole tramonta alle ore 19:20
| Data e Ora | Cielo e Fenomeni | T °C | DP °C | Um. % | Pres. hPa | Vis. km | Vento km/h | |
|---|---|---|---|---|---|---|---|---|
| Oggi h: 15:50 | Poco Nuvoloso | 29 | 7 | 25 | 1017 | 10 | N 13 | |
| Oggi h: 14:50 | Poco Nuvoloso | 28 | 8 | 28 | 1017 | 10 | N 13 | |
| Oggi h: 13:50 | Poco Nuvoloso | 28 | 9 | 30 | 1018 | 10 | NE 14.8 | |
| Oggi h: 12:50 | Poco Nuvoloso | 27 | 11 | 36 | 1018 | 10 | NE 9.3 | |
| Oggi h: 11:50 | Poco Nuvoloso | 26 | 11 | 39 | 1018 | 10 | NE 14.8 | |
| Oggi h: 10:50 | Sereno | 25 | 12 | 44 | 1018 | 10 | N/NE 14.8 | |
| Oggi h: 09:50 | Sereno | 24 | 11 | 43 | 1018 | 10 | N/NE 14.8 | |
| Oggi h: 08:50 | Sereno | 23 | 12 | 49 | 1018 | 10 | N 14.8 | |
| Oggi h: 07:50 | Sereno | 21 | 11 | 52 | 1018 | 10 | N 9.3 | |
| Oggi h: 06:50 | Sereno | 18 | 11 | 63 | 1017 | 10 | N/NO 13 | |
| Oggi h: 05:50 | Sereno | 17 | 11 | 67 | 1017 | 10 | N/NO 13 | |
| Oggi h: 04:50 | Sereno | 18 | 11 | 63 | 1017 | 10 | N/NO 13 | |
| Oggi h: 03:50 | Sereno | 19 | 11 | 59 | 1017 | 10 | N/NO 16.7 | |
| Oggi h: 02:50 | Sereno | 19 | 11 | 59 | 1017 | 10 | N/NO 14.8 | |
| Oggi h: 01:50 | Sereno | 19 | 10 | 55 | 1017 | 10 | N/NO 13 | |
| Oggi h: 00:50 | Sereno | 19 | 10 | 55 | 1017 | 10 | N/NO 7.4 | |
| Ieri h: 23:50 | Sereno | 19 | 9 | 52 | 1017 | 10 | NO 7.4 | |
| Ieri h: 22:50 | Sereno | 21 | 10 | 49 | 1017 | 10 | NO 13 | |
| Ieri h: 21:50 | Sereno | 20 | 10 | 52 | 1017 | 10 | NO 11.1 | |
| Ieri h: 20:50 | Sereno | 20 | 10 | 52 | 1017 | 10 | N/NO 11.1 | |
| Ieri h: 19:50 | Nuvoloso | 22 | 10 | 46 | 1016 | 10 | N/NE 7.4 | |
| Ieri h: 18:50 | Nuvoloso | 25 | 10 | 38 | 1016 | 10 | N/NE 16.7 | |
| Ieri h: 17:50 | Nuvoloso | 25 | 10 | 38 | 1016 | 10 | N/NE 18.5 | |
| Ieri h: 16:50 | Nuvoloso | 25 | 10 | 38 | 1016 | 10 | N 18.5 | |



